TimeEST,TemperatureF,Dew PointF,Humidity,Sea Level PressureIn,VisibilityMPH,Wind Direction,Wind SpeedMPH,Gust SpeedMPH,PrecipitationIn,Events,Conditions,WindDirDegrees,DateUTC
12:53 AM,39.0,34.0,82,30.32,9.0,NNW,5.8,-,N/A,,Clear,340,2013-01-05 05:53:00
1:53 AM,35.1,32.0,89,30.32,8.0,Calm,Calm,-,N/A,,Clear,0,2013-01-05 06:53:00
2:53 AM,33.1,30.0,89,30.33,8.0,Calm,Calm,-,N/A,,Clear,0,2013-01-05 07:53:00
3:53 AM,32.0,28.9,88,30.34,10.0,Calm,Calm,-,N/A,,Clear,0,2013-01-05 08:53:00
4:53 AM,34.0,26.1,73,30.35,10.0,Calm,Calm,-,N/A,,Clear,0,2013-01-05 09:53:00
5:53 AM,30.0,25.0,82,30.35,10.0,Calm,Calm,-,N/A,,Clear,0,2013-01-05 10:53:00
6:53 AM,28.9,26.1,89,30.37,10.0,Calm,Calm,-,N/A,,Unknown,0,2013-01-05 11:53:00
7:53 AM,28.9,26.1,89,30.39,10.0,Calm,Calm,-,N/A,,Clear,0,2013-01-05 12:53:00
8:53 AM,37.0,28.0,70,30.40,10.0,NE,3.5,-,0.01,,Clear,50,2013-01-05 13:53:00
9:53 AM,43.0,25.0,49,30.42,10.0,ENE,8.1,-,N/A,,Clear,70,2013-01-05 14:53:00
10:53 AM,46.9,24.1,41,30.42,10.0,Variable,5.8,-,N/A,,Clear,0,2013-01-05 15:53:00
11:53 AM,48.9,25.0,39,30.39,10.0,Calm,Calm,-,N/A,,Clear,0,2013-01-05 16:53:00
12:53 PM,52.0,24.1,34,30.35,10.0,Calm,Calm,-,N/A,,Clear,0,2013-01-05 17:53:00
1:53 PM,53.1,25.0,34,30.32,10.0,NE,3.5,-,N/A,,Clear,50,2013-01-05 18:53:00
2:53 PM,54.0,26.1,34,30.30,10.0,South,3.5,-,N/A,,Clear,170,2013-01-05 19:53:00
3:53 PM,54.0,26.1,34,30.31,10.0,Calm,Calm,-,N/A,,Clear,0,2013-01-05 20:53:00
4:53 PM,52.0,30.9,45,30.31,10.0,East,3.5,-,N/A,,Clear,100,2013-01-05 21:53:00
5:53 PM,50.0,32.0,50,30.31,10.0,Calm,Calm,-,N/A,,Clear,0,2013-01-05 22:53:00
6:53 PM,48.9,32.0,52,30.32,10.0,Calm,Calm,-,N/A,,Clear,0,2013-01-05 23:53:00
7:53 PM,48.0,32.0,54,30.33,10.0,Calm,Calm,-,N/A,,Clear,0,2013-01-06 00:53:00
8:53 PM,46.9,34.0,61,30.32,10.0,Calm,Calm,-,N/A,,Mostly Cloudy,0,2013-01-06 01:53:00
9:53 PM,46.9,35.1,63,30.32,10.0,Calm,Calm,-,0.00,,Overcast,0,2013-01-06 02:53:00
10:53 PM,46.9,39.0,74,30.31,10.0,Calm,Calm,-,N/A,,Overcast,0,2013-01-06 03:53:00
11:53 PM,46.9,37.0,68,30.30,10.0,Calm,Calm,-,N/A,,Overcast,0,2013-01-06 04:53:00